createdAt,value
2018-09-08T00:01:51.571Z,68.90
2018-09-08T00:04:20.272Z,69.30
2018-09-08T00:06:53.174Z,69.50
2018-09-08T00:09:21.687Z,69.60
2018-09-08T00:11:50.431Z,69.10
2018-09-08T00:14:18.968Z,69.40
2018-09-08T00:16:52.636Z,69.70
2018-09-08T00:19:26.363Z,69.20
2018-09-08T00:22:00.286Z,68.70
2018-09-08T00:24:34.179Z,69.30
2018-09-08T00:27:01.912Z,69.00
2018-09-08T00:29:34.624Z,69.00
2018-09-08T00:32:06.796Z,68.50
2018-09-08T00:34:35.291Z,69.70
2018-09-08T00:37:03.723Z,70.40
2018-09-08T00:39:32.384Z,70.40
2018-09-08T00:42:00.816Z,69.10
2018-09-08T00:44:29.246Z,68.80
2018-09-08T00:46:57.728Z,69.40
2018-09-08T00:49:26.233Z,68.70
2018-09-08T00:51:54.736Z,69.00
2018-09-08T00:54:23.139Z,69.10
2018-09-08T00:56:51.656Z,68.30
2018-09-08T00:59:20.372Z,68.10
2018-09-08T01:01:49.072Z,67.50
2018-09-08T01:04:17.552Z,66.90
2018-09-08T01:06:46.271Z,69.00
2018-09-08T01:09:14.847Z,68.50
2018-09-08T01:11:43.292Z,69.00
2018-09-08T01:14:11.751Z,68.70
2018-09-08T01:16:40.243Z,68.10
2018-09-08T01:19:08.777Z,68.00
2018-09-08T01:21:37.255Z,68.10
2018-09-08T01:24:05.725Z,67.60
2018-09-08T01:26:34.202Z,68.50
2018-09-08T01:29:02.682Z,69.80
2018-09-08T01:31:31.170Z,69.40
2018-09-08T01:33:59.652Z,69.10
2018-09-08T01:36:28.061Z,68.20
2018-09-08T01:38:56.448Z,68.80
2018-09-08T01:41:24.920Z,68.40
2018-09-08T01:43:53.319Z,69.30
2018-09-08T01:46:21.852Z,69.50
2018-09-08T01:48:50.325Z,69.60
2018-09-08T01:51:18.862Z,70.30
2018-09-08T01:53:47.355Z,69.60
2018-09-08T01:56:15.938Z,69.50
2018-09-08T01:58:44.816Z,69.40
2018-09-08T02:01:13.340Z,70.10
2018-09-08T02:03:41.764Z,69.70
2018-09-08T02:06:10.238Z,69.40
2018-09-08T02:08:38.765Z,69.40
2018-09-08T02:11:07.251Z,69.30
2018-09-08T02:13:35.700Z,68.40
2018-09-08T02:16:04.184Z,69.30
2018-09-08T02:18:32.716Z,69.30
2018-09-08T02:21:01.238Z,69.40
2018-09-08T02:23:29.816Z,69.20
2018-09-08T02:25:58.268Z,69.20
2018-09-08T02:28:26.728Z,69.20
2018-09-08T02:30:55.112Z,69.20
2018-09-08T02:33:23.589Z,69.30
2018-09-08T02:35:52.085Z,69.20
2018-09-08T02:38:20.610Z,69.20
2018-09-08T02:40:49.212Z,69.10
2018-09-08T02:43:17.941Z,69.00
2018-09-08T02:45:46.503Z,69.00
2018-09-08T02:48:15.109Z,69.50
2018-09-08T02:50:42.838Z,69.40
2018-09-08T02:53:11.448Z,69.10
2018-09-08T02:55:39.196Z,69.00
2018-09-08T02:58:06.540Z,69.00
2018-09-08T03:00:34.092Z,68.90
2018-09-08T03:03:01.406Z,68.90
2018-09-08T03:05:28.761Z,68.90
2018-09-08T03:07:56.046Z,68.90
2018-09-08T03:10:23.614Z,68.90
2018-09-08T03:12:50.965Z,68.80
2018-09-08T03:15:18.355Z,68.80
2018-09-08T03:17:45.719Z,68.70
2018-09-08T03:20:13.044Z,69.90
2018-09-08T03:22:40.384Z,69.90
2018-09-08T03:25:07.679Z,69.50
2018-09-08T03:27:35.036Z,69.90
2018-09-08T03:30:02.393Z,68.70
2018-09-08T03:32:29.754Z,68.30
2018-09-08T03:34:57.044Z,68.00
2018-09-08T03:37:24.331Z,68.50
2018-09-08T03:39:51.647Z,68.40
2018-09-08T03:42:19.071Z,69.80
2018-09-08T03:44:46.424Z,70.00
2018-09-08T03:47:13.930Z,69.70
2018-09-08T03:49:41.226Z,68.80
2018-09-08T03:52:08.543Z,69.10
2018-09-08T03:54:35.846Z,69.00
2018-09-08T03:57:03.192Z,68.30
2018-09-08T03:59:30.480Z,68.30
2018-09-08T04:01:57.847Z,69.10
2018-09-08T04:04:26.330Z,69.10
2018-09-08T04:06:54.799Z,68.10
2018-09-08T04:09:23.384Z,68.50
2018-09-08T04:11:51.900Z,69.10
2018-09-08T04:14:20.518Z,69.20
2018-09-08T04:16:49.455Z,68.00
2018-09-08T04:19:18.117Z,68.10
2018-09-08T04:21:53.110Z,69.80
2018-09-08T04:24:21.747Z,70.90
2018-09-08T04:26:51.753Z,70.90
2018-09-08T04:29:20.219Z,71.00
2018-09-08T04:31:48.689Z,68.80
2018-09-08T04:34:17.236Z,70.20
2018-09-08T04:36:45.839Z,70.40
2018-09-08T04:39:14.428Z,71.20
2018-09-08T04:41:42.892Z,70.30
2018-09-08T04:44:11.339Z,70.00
2018-09-08T04:46:39.934Z,71.70
2018-09-08T04:49:08.848Z,70.30
2018-09-08T04:51:37.274Z,71.00
2018-09-08T04:54:06.439Z,70.90
2018-09-08T04:56:34.904Z,70.40
2018-09-08T04:59:03.347Z,70.70
2018-09-08T05:01:31.809Z,69.70
2018-09-08T05:04:00.312Z,70.50
2018-09-08T05:06:29.006Z,70.80
2018-09-08T05:08:57.495Z,71.60
2018-09-08T05:11:26.112Z,69.50
2018-09-08T05:13:54.656Z,69.50
2018-09-08T05:16:23.044Z,69.20
2018-09-08T05:18:51.557Z,68.00
2018-09-08T05:21:19.960Z,69.30
2018-09-08T05:23:48.556Z,68.10
2018-09-08T05:26:17.121Z,68.50
2018-09-08T05:28:45.706Z,69.90
2018-09-08T05:31:14.242Z,70.50
2018-09-08T05:33:42.771Z,70.40
2018-09-08T05:36:11.613Z,70.70
2018-09-08T05:38:40.238Z,71.00
2018-09-08T05:41:08.683Z,71.30
2018-09-08T05:43:37.156Z,71.20
2018-09-08T05:46:05.688Z,71.40
2018-09-08T05:48:34.123Z,71.00
2018-09-08T05:51:02.633Z,70.60
2018-09-08T05:53:31.096Z,71.80
2018-09-08T05:55:59.499Z,72.70
2018-09-08T05:58:27.961Z,72.50
2018-09-08T06:00:56.434Z,72.50
2018-09-08T06:03:25.034Z,72.10
2018-09-08T06:05:53.888Z,72.50
2018-09-08T06:11:36.876Z,72.90
2018-09-08T06:14:05.387Z,72.40
2018-09-08T06:16:34.760Z,72.10
2018-09-08T06:19:03.259Z,73.10
2018-09-08T06:21:32.148Z,72.10
2018-09-08T06:24:00.672Z,72.00
2018-09-08T06:26:29.110Z,71.50
2018-09-08T06:28:57.676Z,71.90
2018-09-08T06:31:26.080Z,72.50
2018-09-08T06:33:54.809Z,71.80
2018-09-08T06:36:23.197Z,71.50
2018-09-08T06:38:51.901Z,71.70
2018-09-08T06:41:20.445Z,71.00
2018-09-08T06:43:49.252Z,70.90
2018-09-08T06:46:17.852Z,70.40
2018-09-08T06:48:46.615Z,69.20
2018-09-08T06:51:15.498Z,69.40
2018-09-08T06:53:43.941Z,69.50
2018-09-08T06:56:13.408Z,69.40
2018-09-08T06:58:45.294Z,69.60
2018-09-08T07:01:13.857Z,69.70
2018-09-08T07:03:42.381Z,69.80
2018-09-08T07:06:11.737Z,69.20
2018-09-08T07:08:40.309Z,68.50
2018-09-08T07:11:09.620Z,69.10
2018-09-08T07:13:38.471Z,68.30
2018-09-08T07:16:07.505Z,67.70
2018-09-08T07:18:36.229Z,66.50
2018-09-08T07:21:05.345Z,66.50
2018-09-08T07:23:34.536Z,66.80
2018-09-08T07:26:03.712Z,65.90
2018-09-08T07:28:33.472Z,66.50
2018-09-08T07:31:02.326Z,66.90
2018-09-08T07:33:31.026Z,65.90
2018-09-08T07:36:02.807Z,65.80
2018-09-08T07:38:31.721Z,64.70
2018-09-08T07:41:00.189Z,58.90
2018-09-08T07:43:28.697Z,58.50
2018-09-08T07:45:57.351Z,58.80
2018-09-08T07:48:26.104Z,60.70
2018-09-08T07:50:54.672Z,59.80
2018-09-08T07:53:23.422Z,56.10
2018-09-08T07:55:52.061Z,54.60
2018-09-08T07:58:20.873Z,55.40
2018-09-08T08:00:49.417Z,56.50
2018-09-08T08:03:18.213Z,57.00
2018-09-08T08:05:47.108Z,58.00
2018-09-08T08:08:15.788Z,58.00
2018-09-08T08:10:45.161Z,57.20
2018-09-08T08:13:13.976Z,56.00
2018-09-08T08:15:42.455Z,53.10
2018-09-08T08:18:10.926Z,48.50
2018-09-08T08:20:39.972Z,46.80
2018-09-08T08:23:08.599Z,48.90
2018-09-08T08:25:37.181Z,51.30
2018-09-08T08:28:06.754Z,53.20
2018-09-08T08:30:35.374Z,54.10
2018-09-08T08:33:04.256Z,53.90
2018-09-08T08:35:33.030Z,53.80
2018-09-08T08:38:02.146Z,50.90
2018-09-08T08:40:30.957Z,51.50
2018-09-08T08:42:59.740Z,50.00
2018-09-08T08:45:28.132Z,50.10
2018-09-08T08:47:56.696Z,49.90
2018-09-08T08:50:36.337Z,49.30
2018-09-08T08:53:15.990Z,50.10
2018-09-08T08:55:44.694Z,49.90
2018-09-08T08:58:13.303Z,49.10
2018-09-08T09:00:42.349Z,48.70
2018-09-08T09:03:10.950Z,48.60
2018-09-08T09:05:39.431Z,48.10
2018-09-08T09:08:07.896Z,48.50
2018-09-08T09:10:36.648Z,48.40
2018-09-08T09:13:05.646Z,48.50
2018-09-08T09:15:35.251Z,47.00
2018-09-08T09:18:03.933Z,46.80
2018-09-08T09:20:43.692Z,45.40
2018-09-08T09:24:30.163Z,44.90
2018-09-08T09:26:58.505Z,45.50
2018-09-08T09:29:27.003Z,44.00
2018-09-08T09:34:34.112Z,43.70
2018-09-08T09:37:02.613Z,44.60
2018-09-08T09:39:31.133Z,44.60
2018-09-08T09:41:59.594Z,44.10
2018-09-08T09:44:28.108Z,44.50
2018-09-08T09:46:57.589Z,43.40
2018-09-08T09:49:26.216Z,42.80
2018-09-08T09:51:54.698Z,43.70
2018-09-08T09:54:23.525Z,43.60
2018-09-08T09:56:52.858Z,43.50
2018-09-08T09:59:22.060Z,42.50
2018-09-08T10:01:55.974Z,42.00
2018-09-08T10:04:24.663Z,41.70
2018-09-08T10:06:53.809Z,41.60
2018-09-08T10:09:22.432Z,41.40
2018-09-08T10:11:51.729Z,40.00
2018-09-08T10:14:20.543Z,40.30
2018-09-08T10:16:49.129Z,39.70
2018-09-08T10:19:17.848Z,40.10
2018-09-08T10:21:46.910Z,40.40
2018-09-08T10:24:15.698Z,40.30
2018-09-08T10:26:44.297Z,40.00
2018-09-08T10:29:12.753Z,40.10
2018-09-08T10:31:41.340Z,39.50
2018-09-08T10:34:09.794Z,39.30
2018-09-08T10:36:38.289Z,38.60
2018-09-08T10:39:07.526Z,39.30
2018-09-08T10:41:36.026Z,38.30
2018-09-08T10:44:04.468Z,38.00
2018-09-08T10:46:33.005Z,37.80
2018-09-08T10:49:01.590Z,38.00
2018-09-08T10:51:45.388Z,38.10
2018-09-08T10:54:14.088Z,38.30
2018-09-08T10:56:42.532Z,37.90
2018-09-08T10:59:10.978Z,37.70
2018-09-08T11:01:39.829Z,37.80
2018-09-08T11:04:08.438Z,38.50
2018-09-08T11:06:37.023Z,38.30
2018-09-08T11:09:06.460Z,37.80
2018-09-08T11:11:34.985Z,37.80
2018-09-08T11:14:03.426Z,37.10
2018-09-08T11:16:32.028Z,37.10
2018-09-08T11:19:00.843Z,37.80
2018-09-08T11:21:29.362Z,37.80
2018-09-08T11:23:57.986Z,37.70
2018-09-08T11:26:26.466Z,37.70
2018-09-08T11:28:54.916Z,37.70
2018-09-08T11:31:23.532Z,37.50
2018-09-08T11:33:52.239Z,37.20
2018-09-08T11:36:21.051Z,37.80
2018-09-08T11:38:49.835Z,37.80
2018-09-08T11:41:18.464Z,37.80
2018-09-08T11:43:47.107Z,37.70
2018-09-08T11:46:16.475Z,36.60
2018-09-08T11:48:45.097Z,36.90
2018-09-08T11:51:14.043Z,36.80
2018-09-08T11:53:45.582Z,35.70
2018-09-08T11:56:15.071Z,35.80
2018-09-08T11:58:43.715Z,35.30
2018-09-08T12:01:12.256Z,35.60
2018-09-08T12:03:40.756Z,36.10
2018-09-08T12:06:09.256Z,36.10
2018-09-08T12:08:37.701Z,36.10
2018-09-08T12:11:06.144Z,36.10
2018-09-08T12:13:34.552Z,35.90
2018-09-08T12:16:03.064Z,36.00
2018-09-08T12:18:31.544Z,36.10
2018-09-08T12:21:00.021Z,36.60
2018-09-08T12:23:28.515Z,36.00
2018-09-08T12:25:57.392Z,35.00
2018-09-08T12:28:25.867Z,34.50
2018-09-08T12:30:54.879Z,34.10
2018-09-08T12:33:23.401Z,35.50
2018-09-08T12:35:51.857Z,35.90
2018-09-08T12:38:20.465Z,34.70
2018-09-08T12:40:49.173Z,34.90
2018-09-08T12:43:17.950Z,35.20
2018-09-08T12:45:46.786Z,35.40
2018-09-08T12:48:16.201Z,34.50
2018-09-08T12:50:44.875Z,34.90
2018-09-08T12:53:13.294Z,35.40
2018-09-08T12:55:41.953Z,35.70
2018-09-08T12:58:10.365Z,35.70
2018-09-08T13:00:38.770Z,35.10
2018-09-08T13:03:07.326Z,35.00
2018-09-08T13:05:36.074Z,35.10
2018-09-08T13:08:04.825Z,35.00
2018-09-08T13:10:33.306Z,35.30
2018-09-08T13:13:01.786Z,35.30
2018-09-08T13:15:30.261Z,34.90
2018-09-08T13:17:58.977Z,34.40
2018-09-08T13:20:27.363Z,34.40
2018-09-08T13:22:55.766Z,34.80
2018-09-08T13:25:24.220Z,34.30
2018-09-08T13:27:52.708Z,35.00
2018-09-08T13:30:21.278Z,35.40
2018-09-08T13:32:49.954Z,35.00
2018-09-08T13:35:18.818Z,35.00
2018-09-08T13:37:47.506Z,34.50
2018-09-08T13:40:16.042Z,34.60
2018-09-08T13:42:44.611Z,34.40
2018-09-08T13:45:13.027Z,34.00
2018-09-08T13:47:41.485Z,33.90
2018-09-08T13:50:10.399Z,34.10
2018-09-08T13:52:39.274Z,33.80
2018-09-08T13:55:07.905Z,33.90
2018-09-08T13:57:36.410Z,34.30
2018-09-08T14:00:06.018Z,34.60
2018-09-08T14:02:34.612Z,34.60
2018-09-08T14:05:03.210Z,33.70
2018-09-08T14:07:31.646Z,34.50
2018-09-08T14:10:00.148Z,33.90
2018-09-08T14:12:28.657Z,33.90
2018-09-08T14:14:57.228Z,33.90
2018-09-08T14:17:25.825Z,33.80
2018-09-08T14:19:54.351Z,33.60
2018-09-08T14:22:22.965Z,33.80
2018-09-08T14:24:51.609Z,34.00
2018-09-08T14:27:20.219Z,34.80
2018-09-08T14:29:49.276Z,33.70
2018-09-08T14:32:17.896Z,33.80
2018-09-08T14:34:46.611Z,34.20
2018-09-08T14:37:16.226Z,33.90
2018-09-08T14:39:44.897Z,33.80
2018-09-08T14:42:13.377Z,34.50
2018-09-08T14:44:42.319Z,33.90
2018-09-08T14:47:10.925Z,33.90
2018-09-08T14:49:39.447Z,33.60
2018-09-08T14:52:07.912Z,33.00
2018-09-08T14:54:36.393Z,33.50
2018-09-08T14:57:05.024Z,33.30
2018-09-08T14:59:33.442Z,33.70
2018-09-08T15:02:02.201Z,33.60
2018-09-08T15:04:30.711Z,34.00
2018-09-08T15:06:59.141Z,34.00
2018-09-08T15:09:27.758Z,33.90
2018-09-08T15:11:56.264Z,34.10
2018-09-08T15:14:24.748Z,33.80
2018-09-08T15:16:53.675Z,33.50
2018-09-08T15:19:23.746Z,33.60
2018-09-08T15:21:52.173Z,33.30
2018-09-08T15:24:20.784Z,33.50
2018-09-08T15:30:51.686Z,34.40
2018-09-08T15:33:20.314Z,34.00
2018-09-08T15:35:49.145Z,33.60
2018-09-08T15:38:17.823Z,34.10
2018-09-08T15:40:46.453Z,34.00
2018-09-08T15:43:15.195Z,34.00
2018-09-08T15:45:43.636Z,33.70
2018-09-08T15:48:12.188Z,33.60
2018-09-08T15:50:40.680Z,33.40
2018-09-08T15:53:09.229Z,33.30
2018-09-08T15:55:37.744Z,33.50
2018-09-08T15:58:06.258Z,33.80
2018-09-08T16:00:34.673Z,33.70
2018-09-08T16:03:03.212Z,33.60
2018-09-08T16:05:31.652Z,33.60
2018-09-08T16:08:03.343Z,33.50
2018-09-08T16:10:32.950Z,34.30
2018-09-08T16:13:01.383Z,33.10
2018-09-08T16:15:30.024Z,32.60
2018-09-08T16:17:58.647Z,32.70
2018-09-08T16:20:27.458Z,33.80
2018-09-08T16:22:56.185Z,33.40
2018-09-08T16:25:24.974Z,33.80
2018-09-08T16:27:53.724Z,33.80
2018-09-08T16:30:22.395Z,33.80
2018-09-08T16:32:51.434Z,33.20
2018-09-08T16:35:20.149Z,33.90
2018-09-08T16:37:48.716Z,34.10
2018-09-08T16:40:17.427Z,34.30
2018-09-08T16:42:46.048Z,34.20
2018-09-08T16:45:14.660Z,34.20
2018-09-08T16:47:43.575Z,34.30
2018-09-08T16:50:12.302Z,34.70
2018-09-08T16:52:41.341Z,35.00
2018-09-08T16:55:09.768Z,35.10
2018-09-08T16:57:38.319Z,35.30
2018-09-08T17:00:07.048Z,35.10
2018-09-08T17:02:35.571Z,35.10
2018-09-08T17:05:04.132Z,35.40
2018-09-08T17:07:32.476Z,35.60
2018-09-08T17:10:01.009Z,35.40
2018-09-08T17:12:29.416Z,35.60
2018-09-08T17:14:57.852Z,36.10
2018-09-08T17:17:26.301Z,36.10
2018-09-08T17:19:54.910Z,36.00
2018-09-08T17:22:23.373Z,35.80
2018-09-08T17:24:51.985Z,36.30
2018-09-08T17:27:21.075Z,36.70
2018-09-08T17:29:49.627Z,36.70
2018-09-08T17:32:18.898Z,36.60
2018-09-08T17:34:47.611Z,36.80
2018-09-08T17:37:16.200Z,37.30
2018-09-08T17:39:44.750Z,37.40
2018-09-08T17:42:13.222Z,38.10
2018-09-08T17:44:41.747Z,37.80
2018-09-08T17:47:10.121Z,38.10
2018-09-08T17:49:38.609Z,38.10
2018-09-08T17:52:07.164Z,38.00
2018-09-08T17:54:35.562Z,38.00
2018-09-08T17:57:03.949Z,38.10
2018-09-08T17:59:32.315Z,38.30
2018-09-08T18:02:00.749Z,38.50
2018-09-08T18:04:29.140Z,38.80
2018-09-08T18:06:57.534Z,38.90
2018-09-08T18:09:26.631Z,38.90
2018-09-08T18:11:55.728Z,39.60
2018-09-08T18:14:28.905Z,39.80
2018-09-08T18:16:57.479Z,40.30
2018-09-08T18:19:26.075Z,41.40
2018-09-08T18:21:54.553Z,42.10
2018-09-08T18:24:23.217Z,42.70
2018-09-08T18:26:51.882Z,43.50
2018-09-08T18:29:20.524Z,44.00
2018-09-08T18:31:50.323Z,44.70
2018-09-08T18:34:19.496Z,45.20
2018-09-08T18:36:47.993Z,45.50
2018-09-08T18:39:17.058Z,45.70
2018-09-08T18:41:45.600Z,45.50
2018-09-08T18:44:14.713Z,45.90
2018-09-08T18:46:44.323Z,45.30
2018-09-08T18:49:12.922Z,45.20
2018-09-08T18:51:41.393Z,45.10
2018-09-08T18:54:09.949Z,45.70
2018-09-08T18:56:38.416Z,45.90
2018-09-08T18:59:06.888Z,46.10
2018-09-08T19:01:37.489Z,46.90
2018-09-08T19:04:06.121Z,47.00
2018-09-08T19:06:34.544Z,46.80
2018-09-08T19:09:03.176Z,46.10
2018-09-08T19:11:31.603Z,46.50
2018-09-08T19:14:00.155Z,46.10
2018-09-08T19:16:28.663Z,46.70
2018-09-08T19:18:57.245Z,46.30
2018-09-08T19:21:25.683Z,46.80
2018-09-08T19:23:59.504Z,46.80
2018-09-08T19:26:27.913Z,46.90
2018-09-08T19:29:01.624Z,47.40
2018-09-08T19:31:30.209Z,47.50
2018-09-08T19:33:58.605Z,47.60
2018-09-08T19:36:27.131Z,47.30
2018-09-08T19:38:55.721Z,47.60
2018-09-08T19:41:24.536Z,49.20
2018-09-08T19:43:53.280Z,49.50
2018-09-08T19:46:27.145Z,49.80
2018-09-08T19:48:55.561Z,49.80
2018-09-08T19:51:24.146Z,50.00
2018-09-08T19:53:55.833Z,50.40
2018-09-08T19:56:29.686Z,50.50
2018-09-08T19:58:58.990Z,50.90
2018-09-08T20:01:28.023Z,50.90
2018-09-08T20:03:56.928Z,51.60
2018-09-08T20:06:25.352Z,52.30
2018-09-08T20:08:54.602Z,52.40
2018-09-08T20:11:23.529Z,52.70
2018-09-08T20:13:52.319Z,52.90
2018-09-08T20:16:21.106Z,52.90
2018-09-08T20:18:49.638Z,52.20
2018-09-08T20:21:18.140Z,51.70
2018-09-08T20:23:46.720Z,52.90
2018-09-08T20:26:15.749Z,52.40
2018-09-08T20:28:44.315Z,52.90
2018-09-08T20:31:12.898Z,53.10
2018-09-08T20:33:41.249Z,53.90
2018-09-08T20:36:09.680Z,54.60
2018-09-08T20:38:39.096Z,55.00
2018-09-08T20:41:07.532Z,54.90
2018-09-08T20:43:36.081Z,54.90
2018-09-08T20:46:04.440Z,55.40
2018-09-08T20:48:32.899Z,56.00
2018-09-08T20:51:01.500Z,56.10
2018-09-08T20:53:29.981Z,55.90
2018-09-08T20:55:58.352Z,56.00
2018-09-08T20:58:26.771Z,56.10
2018-09-08T21:00:55.252Z,56.40
2018-09-08T21:03:23.644Z,56.80
2018-09-08T21:05:52.092Z,57.20
2018-09-08T21:08:20.572Z,57.50
2018-09-08T21:10:49.115Z,57.60
2018-09-08T21:13:17.854Z,57.60
2018-09-08T21:15:46.407Z,57.60
2018-09-08T21:18:15.216Z,57.40
2018-09-08T21:20:43.700Z,57.90
2018-09-08T21:23:12.180Z,57.80
2018-09-08T21:25:40.551Z,58.30
2018-09-08T21:28:09.239Z,58.10
2018-09-08T21:30:38.421Z,58.00
2018-09-08T21:33:06.920Z,58.10
2018-09-08T21:35:35.445Z,58.50
2018-09-08T21:38:05.016Z,58.80
2018-09-08T21:40:33.601Z,59.40
2018-09-08T21:43:02.042Z,60.00
2018-09-08T21:45:30.660Z,60.30
2018-09-08T21:47:59.257Z,60.20
2018-09-08T21:50:27.898Z,60.80
2018-09-08T21:52:56.803Z,60.80
2018-09-08T21:55:25.532Z,60.60
2018-09-08T21:57:54.222Z,60.00
2018-09-08T22:00:23.006Z,59.90
2018-09-08T22:02:51.862Z,60.30
2018-09-08T22:05:20.316Z,61.00
2018-09-08T22:07:48.819Z,61.00
2018-09-08T22:10:17.367Z,61.40
2018-09-08T22:12:45.900Z,60.80
2018-09-08T22:15:14.730Z,60.90
2018-09-08T22:17:43.133Z,61.30
2018-09-08T22:20:11.825Z,61.80
2018-09-08T22:22:40.429Z,62.10
2018-09-08T22:25:08.903Z,62.90
2018-09-08T22:27:37.408Z,63.10
2018-09-08T22:30:05.912Z,62.20
2018-09-08T22:32:34.321Z,61.60
2018-09-08T22:35:02.929Z,61.40
2018-09-08T22:37:31.618Z,62.50
2018-09-08T22:40:00.366Z,62.80
2018-09-08T22:42:28.869Z,62.80
2018-09-08T22:44:57.525Z,62.80
2018-09-08T22:47:26.011Z,63.30
2018-09-08T22:49:54.669Z,63.80
2018-09-08T22:52:23.384Z,63.30
2018-09-08T22:54:52.031Z,62.90
2018-09-08T22:57:20.646Z,62.90
2018-09-08T22:59:49.229Z,62.80
2018-09-08T23:02:17.962Z,63.70
2018-09-08T23:04:47.562Z,63.40
2018-09-08T23:07:16.369Z,63.60
2018-09-08T23:09:45.958Z,63.50
2018-09-08T23:12:14.476Z,64.30
2018-09-08T23:14:42.850Z,64.60
2018-09-08T23:17:11.291Z,64.70
2018-09-08T23:19:39.708Z,65.20
2018-09-08T23:22:08.219Z,65.00
2018-09-08T23:24:36.668Z,64.80
2018-09-08T23:27:05.073Z,64.90
2018-09-08T23:29:33.554Z,65.60
2018-09-08T23:32:02.003Z,65.20
2018-09-08T23:34:30.434Z,65.10
2018-09-08T23:36:58.838Z,64.40
2018-09-08T23:39:27.242Z,64.50
2018-09-08T23:41:55.664Z,64.90
2018-09-08T23:44:24.017Z,65.00
2018-09-08T23:46:52.472Z,64.60
2018-09-08T23:49:21.055Z,64.40
2018-09-08T23:51:49.478Z,64.60
2018-09-08T23:54:18.320Z,64.90
2018-09-08T23:56:46.826Z,65.70
2018-09-08T23:59:15.379Z,65.80
